Toledo, OH

4:53 AM EDT on September 16, 2014 (GMT -0400)
University of Toledo | Change Station
CLOSE
Current Station
Personal Weather Station
Location: Toledo, OH
Elevation: 597 ft
Nearby Weather Stations

Elev 597 ft 41.66 °N, 83.62 °W | Updated 9 minutes ago

Overcast
Overcast
53.2 °F
Feels Like 53.2 °F
N
0.0
Wind Variable Wind from NW
Gusts 0.0 mph

Today
High -- | Low -- °F
--% Chance of Precip.
Yesterday
High -- | Low -- °F
Precip. -- in
7:15 AM 7:41 PM
Waning Gibbous, 47% visible
Pressure 30.13 in
Visibility 10.0 miles
Clouds Scattered Clouds 1100 ft
Overcast 1700 ft
Dew Point 53 °F
Humidity 98%
Rainfall -999.00 in
Snow Depth Not available.
UV 0 out of 12
Pollen 2.60 out of 12
Air Quality Not available.
Flu Activity Not available.
SPECI KTDZ 160835Z AUTO 33005KT 10SM SCT011 OVC017 12/11 A3013 RMK AO2 T01220106 TSNO

More Conditions Fewer Conditions

Pressure 30.13 in
Visibility 10.0 miles
Clouds Scattered Clouds 1100 ft
Overcast 1700 ft
Dew Point 53 °F
Humidity 98%
Rainfall -999.00 in
Snow Depth Not available.
UV 0 out of 12
Pollen 2.60 out of 12
Air Quality Not available.
Flu Activity Not available.
SPECI KTDZ 160835Z AUTO 33005KT 10SM SCT011 OVC017 12/11 A3013 RMK AO2 T01220106 TSNO

More Conditions Fewer Conditions

10-Day Weather Forecast

Almanac

Astronomy

Sep. 16, 2014 Rise Set
Actual Time 7:15 AM EDT 7:41 PM EDT
Civil Twilight 6:47 AM EDT 8:09 PM EDT
Nautical Twilight 6:14 AM EDT 8:42 PM EDT
Astronomical Twilight 5:41 AM EDT 9:15 PM EDT
Moon 12:20 AM EDT 3:08 PM EDT
Length of Visible Light 13h 22m
Length of Day
12h 26m
Tomorrow will be 2m 45s shorter.
Waning Gibbous, 47% of the Moon is Illuminated
Today
Waning Gibbous
Sep 24
New
Oct 1
First Quarter
Oct 8
Full
Oct 15
Last Quarter

Today's Extremes

State Highs State Lows

Community

WunderPhotos

Upload Photos

1,753,712 photos uploaded!

WunderBlogs® & News

Nearby

Snow Depth

Station Depth Elevation
No new snow has been reported.

Earthquake Activity

City Distance Mag. Time & Date
No recent earthquake activity has been reported nearby.
Minimum magnitude displayed is 2.5.

Coastal Water Temperatures

Place Temperature
Marblehead, OH 66.0 °F

Nearby Weather Stations